Time;durP1;ratioP1;P1;durP2;ratioP2;P2;SDS_P1;SDS_P2;PMS_P1;PMS_P2;Temp;Humidity;BMP_temperature;BMP_pressure;BME280_temperature;BME280_humidity;BME280_pressure;Samples;Min_cycle;Max_cycle;Signal;HPM_P1;HPM_P2
2023/10/23 00:00:49;;;;;;;0.30;0.30;;;;;;;11.21;85.56;95209.56;4308390;33;20258;-63
2023/10/23 00:03:16;;;;;;;0.30;0.30;;;;;;;11.15;85.85;95216.03;4295243;33;20230;-62
2023/10/23 00:05:41;;;;;;;5.60;0.87;;;;;;;11.17;85.91;95219.19;4302869;33;20267;-63
2023/10/23 00:08:07;;;;;;;1.17;1.03;;;;;;;11.11;86.22;95220.38;4303448;33;20209;-62
2023/10/23 00:10:33;;;;;;;0.30;0.30;;;;;;;11.22;85.38;95231.56;4315016;33;20206;-62
2023/10/23 00:13:00;;;;;;;0.77;0.77;;;;;;;11.23;85.61;95233.12;4325672;33;20181;-62
2023/10/23 00:15:27;;;;;;;0.10;0.10;;;;;;;10.98;86.57;95229.16;4299676;33;20178;-62
2023/10/23 00:17:56;;;;;;;0.50;0.50;;;;;;;11.05;86.58;95231.41;4319588;33;20247;-63
2023/10/23 00:20:21;;;;;;;0.33;0.33;;;;;;;10.96;86.94;95224.16;4303615;33;20201;-63
2023/10/23 00:22:46;;;;;;;0.67;0.67;;;;;;;10.95;87.21;95227.88;4300540;33;20238;-62
2023/10/23 00:25:11;;;;;;;0.67;0.67;;;;;;;11.03;86.88;95215.75;4298646;33;20186;-63
2023/10/23 00:27:38;;;;;;;2.37;0.80;;;;;;;11.03;86.29;95218.41;4310275;33;20183;-63
2023/10/23 00:30:05;;;;;;;1.07;0.50;;;;;;;11.15;86.10;95213.41;4315977;33;20205;-63
2023/10/23 00:32:32;;;;;;;2.07;0.63;;;;;;;11.05;86.19;95202.97;4310323;33;20377;-62
2023/10/23 00:34:59;;;;;;;0.33;0.33;;;;;;;11.06;86.47;95211.72;4316593;33;20212;-63
2023/10/23 00:37:27;;;;;;;0.60;0.60;;;;;;;11.07;86.53;95210.66;4325303;33;20197;-63
2023/10/23 00:39:53;;;;;;;0.57;0.57;;;;;;;11.18;85.98;95218.12;4299897;33;20213;-63
2023/10/23 00:42:22;;;;;;;0.33;0.33;;;;;;;11.26;85.43;95221.91;4273866;33;20377;-63
2023/10/23 00:44:52;;;;;;;0.50;0.50;;;;;;;11.23;85.73;95220.63;4295298;33;20270;-63
2023/10/23 00:47:21;;;;;;;1.07;1.00;;;;;;;11.14;85.79;95216.34;4305252;33;20178;-62
2023/10/23 00:49:48;;;;;;;0.60;0.60;;;;;;;11.22;85.46;95216.41;4274892;33;20186;-63
2023/10/23 00:52:15;;;;;;;0.67;0.67;;;;;;;11.20;85.83;95221.25;4307515;33;20248;-63
2023/10/23 00:54:41;;;;;;;0.53;0.53;;;;;;;11.24;85.77;95218.75;4310536;33;20208;-63
2023/10/23 00:57:10;;;;;;;0.70;0.70;;;;;;;11.19;86.01;95227.66;4305865;33;20215;-62
2023/10/23 00:59:37;;;;;;;0.40;0.40;;;;;;;11.22;85.96;95228.94;4322443;33;20208;-63
2023/10/23 01:02:04;;;;;;;0.60;0.60;;;;;;;11.27;85.78;95226.12;4302062;33;20190;-63
2023/10/23 01:04:30;;;;;;;0.30;0.30;;;;;;;11.33;85.49;95222.28;4303210;33;20192;-63
2023/10/23 01:07:00;;;;;;;0.40;0.40;;;;;;;11.28;85.74;95219.75;4287632;33;20209;-62
2023/10/23 01:09:27;;;;;;;0.50;0.50;;;;;;;11.23;86.00;95217.19;4320267;33;20209;-62
2023/10/23 01:11:53;;;;;;;0.10;0.10;;;;;;;11.29;85.94;95211.47;4315765;33;20206;-63
2023/10/23 01:14:20;;;;;;;0.80;0.80;;;;;;;11.25;86.12;95215.03;4294785;33;20252;-63
2023/10/23 01:16:48;;;;;;;0.53;0.53;;;;;;;11.33;85.81;95223.06;4284955;33;20213;-63
2023/10/23 01:19:15;;;;;;;0.60;0.60;;;;;;;11.39;85.40;95226.41;4292970;33;20268;-63
2023/10/23 01:21:40;;;;;;;0.97;0.87;;;;;;;11.24;85.69;95229.37;4316180;33;20190;-63
2023/10/23 01:24:10;;;;;;;0.40;0.40;;;;;;;11.20;85.93;95228.44;4324259;33;20204;-63
2023/10/23 01:26:36;;;;;;;0.60;0.60;;;;;;;11.33;85.88;95227.59;4312551;33;20201;-62
2023/10/23 01:29:03;;;;;;;0.70;0.70;;;;;;;11.23;85.96;95227.81;4304285;33;20197;-63
2023/10/23 01:31:30;;;;;;;0.70;0.70;;;;;;;11.20;86.09;95233.75;4276775;33;20190;-62
2023/10/23 01:33:57;;;;;;;0.70;0.70;;;;;;;11.15;86.13;95242.59;4298226;33;20177;-63
2023/10/23 01:36:23;;;;;;;0.47;0.47;;;;;;;11.16;85.93;95243.38;4288403;33;20192;-62
2023/10/23 01:38:50;;;;;;;0.33;0.33;;;;;;;11.13;85.98;95249.28;4295888;33;20181;-63
2023/10/23 01:41:15;;;;;;;1.10;1.10;;;;;;;11.18;86.32;95255.28;4296754;33;20225;-63
2023/10/23 01:43:43;;;;;;;1.10;1.00;;;;;;;11.21;86.55;95249.38;4318666;33;20204;-63
2023/10/23 01:46:10;;;;;;;1.03;0.80;;;;;;;11.11;87.18;95257.53;4321789;33;20186;-63
2023/10/23 01:48:38;;;;;;;0.70;0.70;;;;;;;11.06;87.33;95248.91;4319355;33;20194;-62
2023/10/23 01:51:05;;;;;;;0.67;0.50;;;;;;;11.16;87.26;95249.47;4305089;33;20200;-62
2023/10/23 01:53:34;;;;;;;0.70;0.70;;;;;;;11.29;86.90;95245.22;4297288;33;20392;-63
2023/10/23 01:56:09;;;;;;;0.67;0.67;;;;;;;11.29;86.67;95258.50;4309634;33;20217;-63
2023/10/23 01:58:36;;;;;;;1.43;0.93;;;;;;;11.11;87.24;95262.06;4303306;33;20257;-63
2023/10/23 02:01:02;;;;;;;3.10;0.97;;;;;;;11.15;87.29;95258.53;4302295;33;20369;-62
2023/10/23 02:03:31;;;;;;;0.63;0.60;;;;;;;11.15;87.11;95255.88;4318447;33;20211;-63
2023/10/23 02:05:57;;;;;;;0.67;0.67;;;;;;;11.21;86.87;95261.88;4316857;33;20186;-62
2023/10/23 02:08:24;;;;;;;0.67;0.67;;;;;;;11.21;86.86;95254.69;4325987;33;20279;-63
2023/10/23 02:10:51;;;;;;;0.57;0.57;;;;;;;11.05;87.28;95237.50;4310773;33;20208;-62
2023/10/23 02:13:20;;;;;;;0.77;0.77;;;;;;;11.05;87.80;95226.88;4264980;32;20194;-63
2023/10/23 02:15:46;;;;;;;0.53;0.53;;;;;;;11.15;87.41;95228.53;4303685;33;20201;-62
2023/10/23 02:18:13;;;;;;;0.60;0.60;;;;;;;11.07;87.78;95218.62;4313046;33;20194;-63
2023/10/23 02:20:40;;;;;;;0.40;0.40;;;;;;;11.02;87.67;95225.59;4315094;33;20186;-62
2023/10/23 02:23:05;;;;;;;0.67;0.67;;;;;;;11.11;87.52;95236.31;4309397;33;20186;-62
2023/10/23 02:25:30;;;;;;;0.83;0.83;;;;;;;11.15;87.56;95242.59;4292215;33;20305;-62
2023/10/23 02:27:57;;;;;;;1.80;1.07;;;;;;;11.09;87.26;95237.69;4297655;33;20273;-62
2023/10/23 02:30:22;;;;;;;0.27;0.27;;;;;;;11.13;87.02;95228.03;4293176;33;20201;-62
2023/10/23 02:32:48;;;;;;;0.60;0.60;;;;;;;11.04;87.45;95230.59;4284789;33;20212;-62
2023/10/23 02:35:13;;;;;;;1.60;0.70;;;;;;;11.05;87.62;95242.81;4319387;33;20285;-62
2023/10/23 02:37:40;;;;;;;0.40;0.40;;;;;;;11.10;87.29;95233.94;4312291;33;20178;-62
2023/10/23 02:40:07;;;;;;;0.50;0.50;;;;;;;11.18;86.46;95234.03;4304588;33;20317;-62
2023/10/23 02:42:36;;;;;;;0.93;0.90;;;;;;;11.01;86.97;95229.34;4310833;33;20196;-62
2023/10/23 02:45:01;;;;;;;0.60;0.60;;;;;;;11.12;86.60;95237.09;4311180;33;20276;-63
2023/10/23 02:47:28;;;;;;;0.53;0.53;;;;;;;11.13;86.51;95234.16;4311122;33;20170;-62
2023/10/23 02:49:55;;;;;;;0.70;0.70;;;;;;;10.96;86.97;95218.84;4298459;33;20228;-63
2023/10/23 02:52:23;;;;;;;0.40;0.40;;;;;;;10.94;86.90;95214.91;4281983;32;20194;-63
2023/10/23 02:54:50;;;;;;;0.20;0.20;;;;;;;10.91;86.97;95221.59;4284944;33;20194;-63
2023/10/23 02:57:16;;;;;;;0.33;0.33;;;;;;;10.83;87.27;95219.63;4279372;33;20200;-63
2023/10/23 02:59:46;;;;;;;0.40;0.40;;;;;;;10.60;87.27;95215.31;4296292;33;20178;-63
2023/10/23 03:02:19;;;;;;;1.50;0.60;;;;;;;10.39;87.95;95207.00;4291484;33;20181;-63
2023/10/23 03:04:45;;;;;;;0.50;0.50;;;;;;;10.33;88.17;95205.53;4314717;33;20190;-63
2023/10/23 03:07:17;;;;;;;0.30;0.30;;;;;;;10.41;88.26;95209.34;4309220;33;20189;-63
2023/10/23 03:09:45;;;;;;;0.60;0.60;;;;;;;10.54;87.28;95211.22;4301692;33;20193;-63
2023/10/23 03:12:12;;;;;;;0.83;0.53;;;;;;;10.63;87.26;95220.03;4306422;33;20217;-63
2023/10/23 03:14:48;;;;;;;0.50;0.50;;;;;;;10.62;86.91;95215.81;4305548;33;20210;-64
2023/10/23 03:17:14;;;;;;;0.07;0.07;;;;;;;10.67;86.70;95215.72;4313395;32;20178;-63
2023/10/23 03:19:40;;;;;;;0.60;0.27;;;;;;;10.64;86.89;95219.75;4272580;33;20200;-63
2023/10/23 03:22:07;;;;;;;2.67;0.70;;;;;;;10.59;86.42;95233.12;4317473;33;20200;-63
2023/10/23 03:24:36;;;;;;;0.30;0.30;;;;;;;10.60;86.90;95225.94;4293625;33;20183;-63
2023/10/23 03:27:02;;;;;;;0.20;0.20;;;;;;;10.73;86.12;95232.34;4312575;33;20277;-63
2023/10/23 03:29:27;;;;;;;0.40;0.40;;;;;;;10.55;86.26;95231.34;4311233;33;20196;-63
2023/10/23 03:31:52;;;;;;;0.77;0.40;;;;;;;10.58;86.20;95233.44;4305482;33;20182;-63
2023/10/23 03:34:19;;;;;;;0.20;0.20;;;;;;;10.55;86.39;95241.97;4282341;33;20197;-63
2023/10/23 03:36:45;;;;;;;0.30;0.20;;;;;;;10.41;87.01;95243.81;4290910;33;20312;-63
2023/10/23 03:39:11;;;;;;;0.30;0.30;;;;;;;10.29;87.64;95239.00;4307072;33;20280;-63
2023/10/23 03:41:36;;;;;;;0.30;0.30;;;;;;;10.22;88.62;95236.72;4310330;33;20174;-63
2023/10/23 03:44:04;;;;;;;0.00;0.00;;;;;;;10.25;88.26;95232.69;4306462;33;20262;-63
2023/10/23 03:46:31;;;;;;;0.40;0.40;;;;;;;10.43;87.76;95239.00;4317403;33;20182;-62
2023/10/23 03:49:01;;;;;;;0.27;0.27;;;;;;;10.49;87.30;95233.31;4314243;33;20190;-63
2023/10/23 03:51:27;;;;;;;0.50;0.50;;;;;;;10.47;87.29;95242.63;4325671;33;20181;-62
2023/10/23 03:53:54;;;;;;;0.30;0.30;;;;;;;10.47;86.74;95243.44;4309825;33;20182;-63
2023/10/23 03:56:23;;;;;;;0.37;0.37;;;;;;;10.56;86.68;95240.88;4311033;33;20229;-63
2023/10/23 03:58:49;;;;;;;0.23;0.23;;;;;;;10.42;87.28;95245.37;4321068;33;20181;-63
2023/10/23 04:01:18;;;;;;;0.10;0.10;;;;;;;10.48;86.83;95244.22;4270101;33;20189;-63
2023/10/23 04:03:45;;;;;;;0.30;0.30;;;;;;;10.38;86.90;95239.91;4315461;33;20225;-63
2023/10/23 04:06:10;;;;;;;0.30;0.30;;;;;;;10.43;86.74;95245.09;4328628;33;20256;-63
2023/10/23 04:08:38;;;;;;;0.60;0.60;;;;;;;10.52;86.27;95245.22;4339981;32;20190;-63
2023/10/23 04:11:05;;;;;;;0.40;0.40;;;;;;;10.43;86.50;95246.94;4293654;33;20193;-63
2023/10/23 04:13:35;;;;;;;0.20;0.20;;;;;;;10.27;87.29;95249.88;4283660;33;20237;-63
2023/10/23 04:16:02;;;;;;;0.30;0.30;;;;;;;10.36;87.42;95241.28;4271126;33;20198;-62
2023/10/23 04:18:27;;;;;;;0.20;0.20;;;;;;;10.46;86.88;95241.06;4305014;32;20194;-63
2023/10/23 04:21:07;;;;;;;0.30;0.30;;;;;;;10.31;87.34;95237.63;4278302;32;20194;-63
2023/10/23 04:23:40;;;;;;;1.60;0.63;;;;;;;10.42;86.62;95234.78;4298942;33;20182;-63
2023/10/23 04:26:08;;;;;;;0.67;0.67;;;;;;;10.37;86.94;95226.94;4321448;33;20189;-63
2023/10/23 04:28:36;;;;;;;0.40;0.40;;;;;;;10.28;87.44;95219.66;4323726;33;20236;-63
2023/10/23 04:31:04;;;;;;;0.37;0.37;;;;;;;10.35;87.20;95229.09;4326311;32;20276;-63
2023/10/23 04:33:32;;;;;;;0.30;0.30;;;;;;;10.15;87.56;95223.06;4308858;32;20199;-63
2023/10/23 04:36:00;;;;;;;3.50;0.77;;;;;;;10.23;87.49;95217.09;4306520;32;20181;-63
2023/10/23 04:38:25;;;;;;;0.00;0.00;;;;;;;10.32;86.97;95220.63;4274341;33;20205;-63
2023/10/23 04:40:55;;;;;;;0.57;0.57;;;;;;;10.38;86.46;95213.38;4303893;33;20258;-63
2023/10/23 04:43:23;;;;;;;1.30;0.50;;;;;;;10.25;86.81;95216.78;4307626;33;20244;-63
2023/10/23 04:45:52;;;;;;;0.30;0.20;;;;;;;10.11;87.08;95205.38;4296900;33;20194;-63
2023/10/23 04:48:19;;;;;;;0.30;0.30;;;;;;;10.03;87.34;95212.13;4309901;32;20186;-63
2023/10/23 04:50:46;;;;;;;1.03;0.57;;;;;;;9.95;87.66;95204.84;4315837;33;20221;-63
2023/10/23 04:53:11;;;;;;;0.70;0.70;;;;;;;10.03;87.17;95204.16;4275908;33;20206;-63
2023/10/23 04:55:39;;;;;;;0.30;0.30;;;;;;;10.24;86.77;95200.09;4300903;32;20198;-64
2023/10/23 04:58:06;;;;;;;0.40;0.40;;;;;;;10.19;86.65;95199.41;4289167;33;20237;-63
2023/10/23 05:00:37;;;;;;;0.53;0.53;;;;;;;10.25;86.86;95199.03;4299561;33;20303;-64
2023/10/23 05:03:06;;;;;;;0.33;0.33;;;;;;;10.35;86.44;95197.28;4305872;33;20277;-63
2023/10/23 05:05:33;;;;;;;0.70;0.70;;;;;;;10.26;86.70;95199.81;4291021;33;20297;-63
2023/10/23 05:08:00;;;;;;;0.10;0.10;;;;;;;10.19;86.91;95194.88;4324417;33;20174;-63
2023/10/23 05:10:33;;;;;;;0.30;0.30;;;;;;;10.20;86.77;95196.47;4300845;33;20182;-64
2023/10/23 05:12:59;;;;;;;0.17;0.17;;;;;;;10.17;87.11;95191.75;4313910;33;20280;-63
2023/10/23 05:15:25;;;;;;;1.80;0.87;;;;;;;10.05;87.53;95198.56;4322417;33;20241;-63
2023/10/23 05:17:52;;;;;;;0.33;0.33;;;;;;;10.07;87.26;95189.25;4311894;33;20190;-63
2023/10/23 05:20:18;;;;;;;0.40;0.40;;;;;;;10.11;87.06;95198.19;4322538;33;20189;-63
2023/10/23 05:22:44;;;;;;;0.30;0.30;;;;;;;10.18;86.67;95198.63;4282783;33;20202;-63
2023/10/23 05:25:12;;;;;;;0.57;0.57;;;;;;;10.19;86.58;95216.09;4280607;33;20183;-64
2023/10/23 05:27:38;;;;;;;0.20;0.20;;;;;;;10.18;86.54;95213.72;4279883;33;20186;-64
2023/10/23 05:30:07;;;;;;;0.40;0.40;;;;;;;10.12;86.54;95217.53;4304308;33;20209;-63
2023/10/23 05:32:35;;;;;;;0.53;0.53;;;;;;;10.20;86.32;95212.38;4300548;33;20289;-64
2023/10/23 05:35:03;;;;;;;2.27;0.33;;;;;;;10.12;86.64;95217.53;4300069;33;20208;-63
2023/10/23 05:37:35;;;;;;;0.30;0.30;;;;;;;10.11;86.04;95202.72;4283818;33;20265;-64
2023/10/23 05:40:01;;;;;;;0.17;0.17;;;;;;;9.90;87.06;95207.59;4284228;33;20190;-64
2023/10/23 05:42:27;;;;;;;23.03;1.50;;;;;;;10.02;87.02;95205.25;4267630;33;20282;-58
2023/10/23 05:44:52;;;;;;;1.40;1.00;;;;;;;10.36;94.27;95201.50;4288765;33;20186;-60
2023/10/23 05:47:19;;;;;;;4.83;1.23;;;;;;;12.64;100.00;95190.84;4314805;33;20233;-59
2023/10/23 05:49:46;;;;;;;0.73;0.73;;;;;;;12.73;97.84;95194.28;4288211;33;20248;-59
2023/10/23 05:52:11;;;;;;;0.30;0.30;;;;;;;13.17;88.34;95205.84;4307065;33;20196;-63
2023/10/23 05:54:37;;;;;;;0.73;0.73;;;;;;;13.49;80.56;95205.41;4314788;33;20186;-60
2023/10/23 05:57:04;;;;;;;0.60;0.60;;;;;;;13.80;78.21;95209.75;4282664;33;20190;-61
2023/10/23 05:59:37;;;;;;;1.00;0.90;;;;;;;14.26;81.53;95207.13;4290452;33;20269;-60
2023/10/23 06:02:04;;;;;;;6.13;0.77;;;;;;;14.37;81.39;95215.56;4304415;33;20182;-57
2023/10/23 06:04:31;;;;;;;2.53;1.17;;;;;;;14.65;84.31;95215.97;4312040;33;20202;-58
2023/10/23 06:06:57;;;;;;;0.67;0.67;;;;;;;14.94;82.09;95221.31;4273770;33;20186;-58
2023/10/23 06:09:29;;;;;;;1.77;0.30;;;;;;;14.91;73.12;95221.97;4314057;33;20193;-58
2023/10/23 06:11:55;;;;;;;0.20;0.20;;;;;;;14.98;71.28;95227.56;4317092;33;20249;-57
2023/10/23 06:14:22;;;;;;;0.17;0.17;;;;;;;15.21;77.97;95233.41;4300951;33;20257;-63
2023/10/23 06:16:50;;;;;;;0.40;0.40;;;;;;;14.97;71.31;95236.69;4309424;32;20174;-63
2023/10/23 06:19:17;;;;;;;0.80;0.80;;;;;;;13.94;69.00;95245.00;4299308;33;20186;-62
2023/10/23 06:21:44;;;;;;;0.60;0.60;;;;;;;13.29;71.09;95243.31;4317030;33;20186;-62
2023/10/23 06:24:09;;;;;;;0.40;0.40;;;;;;;12.26;74.98;95241.84;4308329;33;20248;-62
2023/10/23 06:26:36;;;;;;;0.50;0.50;;;;;;;11.71;77.65;95242.12;4275340;33;20241;-62
2023/10/23 06:29:01;;;;;;;0.40;0.40;;;;;;;11.35;79.73;95249.34;4303155;33;20276;-62
2023/10/23 06:31:29;;;;;;;0.30;0.30;;;;;;;11.13;80.52;95249.28;4301545;33;20285;-62
2023/10/23 06:34:00;;;;;;;0.53;0.37;;;;;;;11.08;81.11;95246.72;4306187;33;20196;-62
2023/10/23 06:36:41;;;;;;;0.50;0.50;;;;;;;10.62;83.33;95245.00;4310413;33;20243;-62
2023/10/23 06:39:08;;;;;;;0.50;0.50;;;;;;;10.65;83.53;95245.19;4311810;33;20182;-63
2023/10/23 06:41:35;;;;;;;0.47;0.47;;;;;;;10.75;82.96;95236.25;4311369;33;20178;-62
2023/10/23 06:44:00;;;;;;;0.50;0.50;;;;;;;10.87;82.45;95231.22;4314983;32;20190;-65
2023/10/23 06:46:27;;;;;;;0.20;0.20;;;;;;;10.81;82.95;95239.59;4291666;33;20199;-65
2023/10/23 06:48:53;;;;;;;0.10;0.10;;;;;;;10.88;83.05;95246.06;4269679;33;20185;-65
2023/10/23 06:51:19;;;;;;;1.10;0.73;;;;;;;10.94;83.14;95239.59;4291541;33;20234;-65
2023/10/23 06:53:45;;;;;;;0.77;0.67;;;;;;;10.93;83.26;95239.88;4304571;33;20229;-65
2023/10/23 06:56:12;;;;;;;0.53;0.53;;;;;;;10.85;83.90;95248.53;4315533;33;20197;-65
2023/10/23 06:58:39;;;;;;;0.83;0.63;;;;;;;10.83;84.05;95248.81;4322929;32;20182;-65
2023/10/23 07:01:13;;;;;;;0.20;0.20;;;;;;;10.72;84.46;95242.16;4280573;33;20256;-65
2023/10/23 07:03:39;;;;;;;0.37;0.37;;;;;;;10.79;84.40;95231.94;4300001;33;20228;-65
2023/10/23 07:06:10;;;;;;;0.97;0.67;;;;;;;10.91;84.16;95226.91;4300466;33;20355;-65
2023/10/23 07:08:39;;;;;;;0.13;0.13;;;;;;;10.82;84.90;95223.38;4308087;33;20295;-66
2023/10/23 07:11:16;;;;;;;1.10;0.53;;;;;;;10.80;85.17;95235.38;4269770;33;20224;-65
2023/10/23 07:13:46;;;;;;;0.70;0.70;;;;;;;10.73;85.72;95229.69;4262788;33;20206;-65
2023/10/23 07:16:15;;;;;;;0.37;0.37;;;;;;;10.87;85.62;95230.44;4273131;33;20205;-65
2023/10/23 07:18:41;;;;;;;0.60;0.60;;;;;;;10.90;85.81;95225.34;4312137;33;20182;-65
2023/10/23 07:21:07;;;;;;;0.80;0.80;;;;;;;10.85;86.13;95224.66;4275590;33;20251;-65
2023/10/23 07:23:35;;;;;;;2.30;0.37;;;;;;;10.96;85.81;95228.69;4300243;33;20257;-64
2023/10/23 07:26:12;;;;;;;4.27;0.73;;;;;;;10.91;85.96;95240.19;4323246;33;20269;-65
2023/10/23 07:28:39;;;;;;;0.33;0.33;;;;;;;11.00;85.86;95245.59;4290425;33;20193;-65
2023/10/23 07:31:10;;;;;;;0.50;0.50;;;;;;;11.12;85.56;95245.06;4275835;33;20186;-65
2023/10/23 07:33:35;;;;;;;0.77;0.77;;;;;;;11.10;86.02;95257.84;4283341;33;20276;-65
2023/10/23 07:36:08;;;;;;;0.73;0.73;;;;;;;11.22;85.49;95264.19;4291250;33;20189;-65
2023/10/23 07:38:35;;;;;;;2.33;0.73;;;;;;;11.10;86.34;95271.12;4298625;33;20191;-65
2023/10/23 07:41:03;;;;;;;0.70;0.70;;;;;;;11.13;86.52;95266.00;4282581;33;20217;-64
2023/10/23 07:43:29;;;;;;;0.83;0.83;;;;;;;11.06;86.68;95262.97;4301262;33;20179;-65
2023/10/23 07:45:56;;;;;;;1.70;0.77;;;;;;;11.09;87.07;95249.09;4311278;33;20209;-65
2023/10/23 07:48:23;;;;;;;1.37;0.57;;;;;;;11.10;87.05;95239.25;4303003;33;20221;-65
2023/10/23 07:50:49;;;;;;;0.53;0.53;;;;;;;11.28;86.12;95233.00;4282555;33;20179;-65
2023/10/23 07:53:16;;;;;;;0.33;0.33;;;;;;;11.34;86.38;95221.19;4272300;33;20178;-65
2023/10/23 07:55:42;;;;;;;0.40;0.40;;;;;;;11.55;85.58;95222.31;4305035;33;20240;-63
2023/10/23 07:58:08;;;;;;;0.50;0.50;;;;;;;11.66;85.18;95220.97;4312336;33;20197;-63
2023/10/23 08:00:35;;;;;;;0.67;0.67;;;;;;;11.78;84.45;95209.84;4309969;33;20178;-63
2023/10/23 08:03:02;;;;;;;0.37;0.37;;;;;;;11.96;83.89;95211.50;4299855;33;20200;-63
2023/10/23 08:05:27;;;;;;;0.63;0.63;;;;;;;12.08;83.32;95205.63;4289632;33;20186;-62
2023/10/23 08:07:54;;;;;;;3.73;2.50;;;;;;;12.28;82.60;95204.31;4300585;33;20227;-63
2023/10/23 08:10:19;;;;;;;0.80;0.80;;;;;;;12.37;82.20;95215.78;4299439;33;20213;-62
2023/10/23 08:12:46;;;;;;;0.43;0.43;;;;;;;12.32;82.29;95195.41;4295740;33;20190;-62
2023/10/23 08:15:17;;;;;;;0.40;0.40;;;;;;;12.52;81.97;95196.75;4299785;33;20218;-63
2023/10/23 08:17:46;;;;;;;0.63;0.63;;;;;;;12.55;82.06;95198.00;4294022;33;20190;-63
2023/10/23 08:20:15;;;;;;;0.83;0.73;;;;;;;12.61;81.58;95196.78;4315855;33;20202;-63
2023/10/23 08:22:41;;;;;;;0.63;0.60;;;;;;;12.51;81.86;95197.03;4305967;33;20175;-63
2023/10/23 08:25:11;;;;;;;1.30;0.37;;;;;;;12.70;81.39;95200.22;4295576;33;20178;-63
2023/10/23 08:27:37;;;;;;;0.67;0.40;;;;;;;12.73;80.59;95211.03;4322591;33;20192;-63
2023/10/23 08:30:04;;;;;;;0.47;0.47;;;;;;;12.65;80.70;95206.50;4297975;33;20364;-63
2023/10/23 08:32:35;;;;;;;0.40;0.40;;;;;;;12.69;80.76;95193.34;4285407;33;20194;-63
2023/10/23 08:35:03;;;;;;;1.50;0.73;;;;;;;12.67;81.15;95188.34;4307767;33;20193;-63
2023/10/23 08:37:28;;;;;;;0.80;0.80;;;;;;;12.65;81.77;95182.56;4298703;33;20174;-63
2023/10/23 08:39:55;;;;;;;0.60;0.60;;;;;;;12.87;81.53;95184.31;4311299;33;20216;-63
2023/10/23 08:42:21;;;;;;;0.30;0.30;;;;;;;12.87;80.81;95194.97;4277525;33;20228;-63
2023/10/23 08:44:51;;;;;;;0.40;0.40;;;;;;;13.04;80.72;95197.66;4312331;33;20181;-63
2023/10/23 08:47:18;;;;;;;1.13;0.47;;;;;;;13.12;80.64;95206.75;4314723;32;20177;-63
2023/10/23 08:49:45;;;;;;;0.30;0.30;;;;;;;13.16;80.21;95198.94;4326861;33;20186;-63
2023/10/23 08:52:11;;;;;;;0.40;0.40;;;;;;;13.06;80.15;95197.34;4317453;32;20178;-63
2023/10/23 08:54:44;;;;;;;0.73;0.67;;;;;;;13.21;79.97;95193.47;4294137;33;20186;-63
2023/10/23 08:57:11;;;;;;;0.77;0.77;;;;;;;13.22;79.98;95197.69;4294840;33;20182;-63
2023/10/23 08:59:41;;;;;;;0.30;0.30;;;;;;;13.17;80.03;95187.19;4259217;33;20186;-63
2023/10/23 09:02:09;;;;;;;0.40;0.40;;;;;;;13.23;79.76;95186.75;4274790;33;20199;-63
2023/10/23 09:04:35;;;;;;;0.60;0.60;;;;;;;13.40;78.75;95180.62;4293587;33;20278;-63
2023/10/23 09:07:02;;;;;;;0.30;0.30;;;;;;;13.48;78.02;95171.06;4302778;33;20196;-63
2023/10/23 09:09:28;;;;;;;0.40;0.40;;;;;;;13.40;78.55;95169.97;4302945;33;20182;-63
2023/10/23 09:11:54;;;;;;;0.30;0.30;;;;;;;13.41;78.51;95160.87;4285483;33;20186;-63
2023/10/23 09:14:37;;;;;;;0.23;0.23;;;;;;;13.40;78.64;95156.62;4313975;33;20199;-63
2023/10/23 09:17:04;;;;;;;0.23;0.23;;;;;;;13.41;78.56;95147.53;4269605;33;20286;-63
2023/10/23 09:19:36;;;;;;;0.20;0.20;;;;;;;13.58;77.53;95149.41;4313883;33;20308;-63
2023/10/23 09:22:15;;;;;;;0.20;0.20;;;;;;;13.59;77.40;95141.09;4291149;33;20280;-63
2023/10/23 09:24:45;;;;;;;0.20;0.20;;;;;;;13.64;77.90;95137.47;4275911;33;20199;-63
2023/10/23 09:27:12;;;;;;;0.43;0.43;;;;;;;13.77;77.47;95139.16;4323817;33;20208;-63
2023/10/23 09:29:38;;;;;;;0.20;0.20;;;;;;;13.73;76.41;95140.91;4299138;33;20209;-63
2023/10/23 09:32:06;;;;;;;0.50;0.30;;;;;;;13.73;76.41;95141.69;4314594;33;20182;-63
2023/10/23 09:34:31;;;;;;;0.50;0.47;;;;;;;13.67;77.62;95142.97;4306845;33;20182;-63
2023/10/23 09:37:00;;;;;;;0.10;0.10;;;;;;;13.73;77.54;95140.91;4299357;33;20232;-63
2023/10/23 09:39:27;;;;;;;0.17;0.17;;;;;;;13.83;77.63;95135.25;4302627;33;20262;-63
2023/10/23 09:41:53;;;;;;;0.40;0.40;;;;;;;13.87;77.36;95146.06;4313518;33;20200;-63
2023/10/23 09:44:24;;;;;;;0.40;0.40;;;;;;;14.01;76.14;95135.97;4304925;32;20190;-63
2023/10/23 09:46:53;;;;;;;0.00;0.00;;;;;;;14.05;75.89;95142.25;4264138;33;20221;-63
2023/10/23 09:49:24;;;;;;;0.47;0.47;;;;;;;14.04;75.57;95152.13;4276014;33;20186;-63
2023/10/23 09:51:54;;;;;;;0.30;0.30;;;;;;;14.13;75.29;95144.09;4312581;33;20200;-63
2023/10/23 09:54:21;;;;;;;0.53;0.50;;;;;;;14.16;74.65;95143.44;4313825;33;20228;-63
2023/10/23 09:56:54;;;;;;;0.20;0.20;;;;;;;14.22;74.24;95136.84;4310166;33;20178;-63
2023/10/23 09:59:34;;;;;;;0.13;0.13;;;;;;;14.28;73.89;95137.44;4279483;33;20191;-63
2023/10/23 10:02:00;;;;;;;1.73;1.63;;;;;;;14.36;74.30;95136.59;4295036;33;20261;-63
2023/10/23 10:04:41;;;;;;;0.20;0.20;;;;;;;14.42;74.83;95130.81;4270467;33;20308;-63
2023/10/23 10:07:19;;;;;;;0.20;0.20;;;;;;;14.54;73.67;95130.13;4295226;33;20228;-63
2023/10/23 10:09:48;;;;;;;0.70;0.70;;;;;;;14.50;73.71;95134.53;4294024;33;20190;-63
2023/10/23 10:12:13;;;;;;;0.23;0.23;;;;;;;14.57;73.74;95132.13;4300923;33;20186;-63
2023/10/23 10:14:41;;;;;;;0.30;0.30;;;;;;;14.50;73.91;95131.09;4325878;33;20189;-63
2023/10/23 10:17:10;;;;;;;0.10;0.10;;;;;;;14.47;74.62;95132.50;4280882;33;20209;-63
2023/10/23 10:19:37;;;;;;;0.10;0.10;;;;;;;14.63;74.27;95136.19;4288753;33;20277;-63
2023/10/23 10:22:28;;;;;;;4.13;0.30;;;;;;;14.58;73.58;95131.03;4284163;33;20419;-63
2023/10/23 10:24:56;;;;;;;0.30;0.30;;;;;;;14.71;72.85;95124.69;4306987;33;20178;-63
2023/10/23 10:27:28;;;;;;;0.27;0.27;;;;;;;14.65;73.11;95117.97;4278327;33;20182;-63
2023/10/23 10:29:54;;;;;;;0.40;0.40;;;;;;;14.69;73.25;95118.09;4300166;33;20190;-63
2023/10/23 10:32:23;;;;;;;0.60;0.60;;;;;;;14.73;72.83;95117.13;4289434;33;20179;-63
2023/10/23 10:34:54;;;;;;;0.37;0.37;;;;;;;14.77;72.70;95109.22;4279841;33;20236;-63
2023/10/23 10:37:30;;;;;;;0.10;0.10;;;;;;;14.88;71.27;95094.41;4286230;33;20189;-63
2023/10/23 10:40:04;;;;;;;0.50;0.50;;;;;;;14.72;73.10;95093.41;4290350;33;20233;-63
2023/10/23 10:42:35;;;;;;;0.30;0.30;;;;;;;14.84;72.09;95084.69;4321906;33;20193;-63
2023/10/23 10:45:14;;;;;;;0.30;0.30;;;;;;;14.90;71.89;95080.72;4317397;33;20213;-63
2023/10/23 10:47:48;;;;;;;0.20;0.20;;;;;;;14.95;71.23;95083.19;4311440;32;20185;-63
2023/10/23 10:50:32;;;;;;;0.07;0.07;;;;;;;14.96;71.02;95076.75;4325521;33;20242;-62
2023/10/23 10:53:04;;;;;;;1.13;0.47;;;;;;;15.02;70.51;95059.41;4303578;33;20182;-63
2023/10/23 10:55:32;;;;;;;0.30;0.30;;;;;;;15.04;70.11;95049.16;4310041;33;20186;-62
2023/10/23 10:57:59;;;;;;;0.10;0.10;;;;;;;15.03;69.85;95052.94;4299396;33;20185;-63
2023/10/23 11:00:31;;;;;;;0.23;0.23;;;;;;;15.00;69.62;95064.28;4291754;33;20183;-63
2023/10/23 11:02:58;;;;;;;0.10;0.10;;;;;;;15.09;69.58;95062.34;4321272;33;20206;-64
2023/10/23 11:05:24;;;;;;;0.17;0.17;;;;;;;15.08;69.23;95058.88;4307598;33;20190;-64
2023/10/23 11:07:51;;;;;;;0.10;0.10;;;;;;;15.08;69.47;95042.84;4298955;32;20240;-64
2023/10/23 11:10:21;;;;;;;0.10;0.10;;;;;;;15.12;69.98;95037.63;4327989;32;20221;-64
2023/10/23 11:12:52;;;;;;;0.10;0.10;;;;;;;15.10;70.58;95027.28;4310613;33;20197;-64
2023/10/23 11:15:17;;;;;;;0.20;0.20;;;;;;;15.13;70.49;95026.63;4308208;33;20209;-64
2023/10/23 11:17:45;;;;;;;0.30;0.30;;;;;;;15.26;69.86;95015.94;4319274;33;20185;-64
2023/10/23 11:20:12;;;;;;;1.33;0.23;;;;;;;15.21;70.75;95027.62;4317312;33;20178;-64
2023/10/23 11:22:43;;;;;;;0.77;0.30;;;;;;;15.26;71.59;95029.31;4298350;33;20233;-64
2023/10/23 11:25:10;;;;;;;1.00;0.33;;;;;;;15.25;72.17;95035.78;4274432;33;20182;-65
2023/10/23 11:27:37;;;;;;;0.20;0.20;;;;;;;15.31;71.34;95026.44;4301075;33;20252;-65
2023/10/23 11:30:03;;;;;;;0.10;0.10;;;;;;;15.37;71.52;95022.47;4323829;33;20174;-64
2023/10/23 11:32:29;;;;;;;0.33;0.33;;;;;;;15.47;71.29;95017.44;4303733;32;20241;-64
2023/10/23 11:35:02;;;;;;;0.40;0.40;;;;;;;15.47;70.63;95009.44;4317244;33;20197;-64
2023/10/23 11:37:32;;;;;;;0.30;0.30;;;;;;;15.49;71.41;95011.78;4295574;33;20236;-64